Nearby METAR Reports

 

KIMT - Iron Mountain, Michigan, USA
Distance from station: 0 29mi, 47km
Updated: Wed, 26-Jun-2019 2:54pm CDT
Few Clouds
Few Clouds
 Wind from W
Wind: W 9 mph , 15 km/h
Temperature: 82°F , 28°C
Dew Point: 52°F , 11°C
Humidity: 35%
Barometer: 29.97 inHg , 1014.9 hPa
Clouds: Few Clouds
Visibility: 10 miles , 16 km
Cloud details: Few Clouds 10000 ft
2019/06/26 19:54 KIMT 261954Z AUTO 27008KT 240V300 10SM FEW100 28/11 A2997 RMK AO2 SLP147 T02830106
KMNM - Menominee, Michigan, USA
Distance from station: SE 31mi, 51km
Updated: Wed, 26-Jun-2019 2:56pm CDT
Clear
Clear
 Wind from varies
Wind: varies 7 mph , 11 km/h
Temperature: 81°F , 27°C
Heat Index: 81°F , 27°C
Dew Point: 55°F , 13°C
Humidity: 42%
Barometer: 30.00 inHg , 1015.9 hPa
Clouds: Clear
Visibility: 10 miles , 16 km
2019/06/26 19:56 KMNM 261956Z AUTO VRB06KT 10SM CLR 27/13 A3000 RMK AO2 SLP156 T02720133 $
 
KOCQ - Oconto, Wisconsin, USA
Distance from station: SSE 38mi, 61km
Updated: Wed, 26-Jun-2019 2:55pm CDT
Partly cloudy
Partly cloudy
 Wind from W
Wind: W 7 mph , 11 km/h, Gust: 10 mph , 17 km/h
Temperature: 84°F , 29°C
Dew Point: 52°F , 11°C
Humidity: 33%
Barometer: 30.00 inHg , 1015.9 hPa
Clouds: Partly cloudy
Visibility: 10 miles , 16 km
Cloud details: Partly cloudy 7500 ft
Partly cloudy 9000 ft
2019/06/26 19:55 KOCQ 261955Z AUTO 28006G09KT 10SM SCT075 SCT090 29/11 A3000 RMK AO1 T02920112
KEZS - Shawano Muni, Wisconsin, USA
Distance from station: SSW 48mi, 77km
Updated: Wed, 26-Jun-2019 2:55pm CDT
Clear
Clear
 Wind from W
Wind: W 9 mph , 15 km/h
Temperature: 84°F , 29°C
Dew Point: 48°F , 9°C
Humidity: 29%
Barometer: 30.01 inHg , 1016.3 hPa
Clouds: Clear
Visibility: 10 miles , 16 km
2019/06/26 19:55 KEZS 261955Z AUTO 28008KT 10SM CLR 29/09 A3001 RMK AO2 T02900091
 
KAIG - Antigo/Langlade, Wisconsin, USA
Distance from station: WSW 51mi, 82km
Updated: Wed, 26-Jun-2019 2:55pm CDT
Clear
Clear
 Wind from W
Wind: W 8 mph , 13 km/h
Temperature: 77°F , 25°C
Dew Point: 55°F , 13°C
Humidity: 47%
Barometer: 30.05 inHg , 1017.6 hPa
Clouds: Clear
Visibility: 10 miles , 16 km
2019/06/26 19:55 KAIG 261955Z AUTO 26007KT 10SM CLR 25/13 A3005 RMK AO2 T02530125
KSUE - Sturgeon Bay, Wisconsin, USA
Distance from station: SE 51mi, 82km
Updated: Wed, 26-Jun-2019 2:56pm CDT
Clear
Clear
 Wind from W
Wind: W 14 mph , 22 km/h, Gust: 18 mph , 30 km/h
Temperature: 82°F , 28°C
Dew Point: 54°F , 12°C
Humidity: 37%
Barometer: 30.01 inHg , 1016.3 hPa
Clouds: Clear
Visibility: 10 miles , 16 km
2019/06/26 19:56 KSUE 261956Z AUTO 27012G16KT 10SM CLR 28/12 A3001 RMK AO2 SLP157 T02780117
 
KESC - Escanaba, Michigan, USA
Distance from station: ENE 56mi, 90km
Updated: Wed, 26-Jun-2019 2:56pm CDT
Clear
Clear
 Wind from W
Wind: W 16 mph , 26 km/h, Gust: 22 mph , 35 km/h
Temperature: 84°F , 29°C
Dew Point: 52°F , 11°C
Humidity: 33%
Barometer: 29.95 inHg , 1014.2 hPa
Clouds: Clear
Visibility: 10 miles , 16 km
2019/06/26 19:56 KESC 261956Z AUTO 28014G19KT 10SM CLR 29/11 A2995 RMK AO2 SLP144 T02890111
KCLI - Clintonville, Wisconsin, USA
Distance from station: SSW 62mi, 99km
Updated: Wed, 26-Jun-2019 2:55pm CDT
Clear
Clear
 Wind from W
Wind: W 8 mph , 13 km/h
Temperature: 84°F , 29°C
Dew Point: 45°F , 7°C
Humidity: 25%
Barometer: 30.02 inHg , 1016.6 hPa
Clouds: Clear
Visibility: 10 miles , 16 km
2019/06/26 19:55 KCLI 261955Z AUTO 28007KT 10SM CLR 29/07 A3002 RMK AO2 T02850074
 
KGRB - Ashwaubenon, Wisconsin, USA
Distance from station: S 63mi, 102km
Updated: Wed, 26-Jun-2019 2:53pm CDT
Clear
Clear
 Wind from WSW
Wind: WSW 8 mph , 13 km/h
Temperature: 82°F , 28°C
Heat Index: 81°F , 27°C
Dew Point: 55°F , 13°C
Humidity: 40%
Barometer: 30.02 inHg , 1016.6 hPa
Clouds: Clear
Visibility: 10 miles , 16 km
2019/06/26 19:53 KGRB 261953Z 25007KT 10SM CLR 28/13 A3002 RMK AO2 SLP162 T02780133
KEGV - Eagle River, Wisconsin, USA
Distance from station: NW 66mi, 107km
Updated: Wed, 26-Jun-2019 2:55pm CDT
Partly cloudy
Partly cloudy
 Wind from WNW
Wind: WNW 7 mph , 11 km/h
Temperature: 77°F , 25°C
Dew Point: 45°F , 7°C
Humidity: 32%
Barometer: 30.01 inHg , 1016.3 hPa
Clouds: Partly cloudy
Visibility: 10 miles , 16 km
Cloud details: Partly cloudy 7000 ft
2019/06/26 19:55 KEGV 261955Z AUTO 30006KT 10SM SCT070 25/07 A3001 RMK AO2 T02480072
 
KRHI - Rhinelander, Wisconsin, USA
Distance from station: WNW 68mi, 109km
Updated: Wed, 26-Jun-2019 2:53pm CDT
Partly cloudy
Partly cloudy
 Wind from W
Wind: W 13 mph , 20 km/h
Temperature: 82°F , 28°C
Dew Point: 50°F , 10°C
Humidity: 32%
Barometer: 30.04 inHg , 1017.3 hPa
Clouds: Partly cloudy
Visibility: 10 miles , 16 km
Cloud details: Partly cloudy 7000 ft
2019/06/26 19:53 KRHI 261953Z AUTO 28011KT 10SM SCT070 28/10 A3004 RMK AO2 SLP164 T02830100
KLNL - Land O Lakes, Wisconsin, USA
Distance from station: NW 74mi, 119km
Updated: Wed, 26-Jun-2019 2:55pm CDT
Partly cloudy
Partly cloudy
 Wind from W
Wind: W 8 mph , 13 km/h
Temperature: 81°F , 27°C
Dew Point: 45°F , 7°C
Humidity: 28%
Barometer: 30.02 inHg , 1016.6 hPa
Clouds: Partly cloudy
Visibility: 10 miles , 16 km
Cloud details: Partly cloudy 7500 ft
Partly cloudy 9500 ft
2019/06/26 19:55 KLNL 261955Z AUTO 28007KT 240V340 10SM SCT075 SCT095 27/07 A3002 RMK AO2 T02720071
 
KSAW - Gwinn/Sawyer, Michigan, USA
Distance from station: NNE 74mi, 120km
Updated: Wed, 26-Jun-2019 2:47pm CDT
Partly cloudy
Partly cloudy
 Wind from WNW
Wind: WNW 14 mph , 22 km/h, Gust: 21 mph , 33 km/h
Temperature: 81°F , 27°C
Dew Point: 46°F , 8°C
Humidity: 30%
Barometer: 29.97 inHg , 1014.9 hPa
Clouds: Partly cloudy
Visibility: 10 miles , 16 km
Cloud details: Partly cloudy 10000 ft
2019/06/26 19:47 KSAW 261947Z 29012G18KT 10SM SCT100 27/08 A2997